createdAt,value
2022-08-04T00:01:34.627Z,99215.75
2022-08-04T00:03:18.017Z,99224.50
2022-08-04T00:04:56.640Z,99217.88
2022-08-04T00:06:46.935Z,99213.28
2022-08-04T00:08:27.540Z,99215.56
2022-08-04T00:10:04.106Z,99222.13
2022-08-04T00:11:40.969Z,99218.16
2022-08-04T00:13:14.738Z,99228.22
2022-08-04T00:14:51.139Z,99232.94
2022-08-04T00:16:25.805Z,99230.69
2022-08-04T00:18:09.922Z,99226.41
2022-08-04T00:19:45.991Z,99230.81
2022-08-04T00:21:22.436Z,99231.75
2022-08-04T00:22:55.813Z,99232.50
2022-08-04T00:24:31.987Z,99224.16
2022-08-04T00:26:06.975Z,99232.94
2022-08-04T00:27:40.688Z,99237.88
2022-08-04T00:29:14.247Z,99241.28
2022-08-04T00:30:47.740Z,99241.94
2022-08-04T00:32:33.979Z,99238.31
2022-08-04T00:34:08.919Z,99228.56
2022-08-04T00:35:42.377Z,99229.50
2022-08-04T00:37:16.804Z,99226.28
2022-08-04T00:38:50.975Z,99231.66
2022-08-04T00:40:30.476Z,99235.31
2022-08-04T00:42:49.466Z,99236.13
2022-08-04T00:44:41.644Z,99235.50
2022-08-04T00:46:47.992Z,99245.25
2022-08-04T00:48:35.169Z,99238.97
2022-08-04T00:50:13.070Z,99237.88
2022-08-04T00:52:32.857Z,99243.34
2022-08-04T00:53:56.382Z,99244.31
2022-08-04T00:55:43.335Z,99246.03
2022-08-04T00:57:34.537Z,99255.03
2022-08-04T00:59:20.117Z,99242.16
2022-08-04T01:01:00.499Z,99251.25
2022-08-04T01:02:38.918Z,99245.59
2022-08-04T01:04:22.033Z,99247.28
2022-08-04T01:06:07.639Z,99235.44
2022-08-04T01:08:10.976Z,99258.63
2022-08-04T01:09:58.400Z,99257.06
2022-08-04T01:11:57.392Z,99255.03
2022-08-04T01:13:48.854Z,99256.81
2022-08-04T01:16:00.100Z,99265.63
2022-08-04T01:17:38.889Z,99270.88
2022-08-04T01:19:35.744Z,99269.25
2022-08-04T01:21:42.747Z,99265.81
2022-08-04T01:23:51.922Z,99277.38
2022-08-04T01:25:39.279Z,99275.69
2022-08-04T01:27:27.477Z,99270.75
2022-08-04T01:29:11.076Z,99273.16
2022-08-04T01:30:50.950Z,99266.72
2022-08-04T01:32:33.149Z,99266.50
2022-08-04T01:34:10.233Z,99271.75
2022-08-04T01:35:48.963Z,99269.19
2022-08-04T01:37:36.431Z,99264.97
2022-08-04T01:39:24.799Z,99270.56
2022-08-04T01:41:03.825Z,99262.72
2022-08-04T01:42:38.916Z,99264.53
2022-08-04T01:44:15.901Z,99258.34
2022-08-04T01:45:52.233Z,99256.41
2022-08-04T01:47:29.998Z,99256.41
2022-08-04T01:49:04.851Z,99260.06
2022-08-04T01:50:38.553Z,99255.78
2022-08-04T01:52:12.366Z,99264.09
2022-08-04T01:53:46.030Z,99258.75
2022-08-04T01:55:19.624Z,99248.44
2022-08-04T01:56:54.751Z,99252.09
2022-08-04T01:58:30.946Z,99253.47
2022-08-04T02:00:07.004Z,99261.88
2022-08-04T02:01:39.328Z,99262.44
2022-08-04T02:03:14.244Z,99261.81
2022-08-04T02:04:47.525Z,99263.50
2022-08-04T02:06:32.819Z,99264.38
2022-08-04T02:08:20.154Z,99257.78
2022-08-04T02:10:05.528Z,99258.50
2022-08-04T02:11:42.309Z,99255.66
2022-08-04T02:13:24.672Z,99259.63
2022-08-04T02:15:04.473Z,99249.22
2022-08-04T02:16:52.725Z,99263.75
2022-08-04T02:18:32.000Z,99264.84
2022-08-04T02:20:08.237Z,99259.47
2022-08-04T02:21:43.113Z,99264.84
2022-08-04T02:25:19.806Z,99272.94
2022-08-04T02:26:57.815Z,99266.94
2022-08-04T02:28:36.632Z,99261.81
2022-08-04T02:30:09.811Z,99271.44
2022-08-04T02:31:50.198Z,99270.38
2022-08-04T02:33:30.571Z,99269.41
2022-08-04T02:35:08.296Z,99272.94
2022-08-04T02:36:43.348Z,99261.38
2022-08-04T02:38:25.519Z,99267.91
2022-08-04T02:40:02.742Z,99266.94
2022-08-04T02:41:38.590Z,99266.38
2022-08-04T02:43:12.126Z,99262.19
2022-08-04T02:44:51.356Z,99269.25
2022-08-04T02:46:25.964Z,99260.47
2022-08-04T02:48:29.062Z,99263.91
2022-08-04T02:49:58.864Z,99261.44
2022-08-04T02:51:35.505Z,99266.22
2022-08-04T02:53:13.224Z,99266.50
2022-08-04T02:54:48.869Z,99277.34
2022-08-04T02:56:23.593Z,99271.03
2022-08-04T02:58:00.409Z,99269.84
2022-08-04T02:59:53.175Z,99269.47
2022-08-04T03:01:27.217Z,99277.38
2022-08-04T03:03:16.267Z,99271.47
2022-08-04T03:04:56.584Z,99267.19
2022-08-04T03:06:55.157Z,99269.31
2022-08-04T03:09:01.725Z,99281.31
2022-08-04T03:11:06.844Z,99281.50
2022-08-04T03:13:23.815Z,99295.06
2022-08-04T03:15:35.039Z,99288.75
2022-08-04T03:17:52.905Z,99297.53
2022-08-04T03:20:11.105Z,99297.75
2022-08-04T03:22:25.259Z,99294.28
2022-08-04T03:24:40.315Z,99303.09
2022-08-04T03:26:39.861Z,99299.44
2022-08-04T03:28:52.294Z,99302.63
2022-08-04T03:30:39.568Z,99292.41
2022-08-04T03:32:57.558Z,99300.81
2022-08-04T03:34:45.451Z,99306.34
2022-08-04T03:36:49.905Z,99312.63
2022-08-04T03:38:57.576Z,99310.16
2022-08-04T03:40:39.049Z,99306.72
2022-08-04T03:42:40.582Z,99303.78
2022-08-04T03:44:36.541Z,99300.91
2022-08-04T03:46:31.738Z,99303.69
2022-08-04T03:48:19.858Z,99310.72
2022-08-04T03:50:36.232Z,99300.03
2022-08-04T03:52:48.044Z,99313.69
2022-08-04T03:54:40.207Z,99304.78
2022-08-04T03:56:49.661Z,99306.75
2022-08-04T03:58:54.004Z,99310.53
2022-08-04T04:00:32.374Z,99302.13
2022-08-04T04:02:41.069Z,99314.03
2022-08-04T04:04:36.028Z,99310.84
2022-08-04T04:06:34.200Z,99305.75
2022-08-04T04:08:46.836Z,99311.59
2022-08-04T04:10:40.308Z,99311.16
2022-08-04T04:12:31.094Z,99299.19
2022-08-04T04:14:19.569Z,99314.66
2022-08-04T04:16:08.383Z,99300.94
2022-08-04T04:18:04.446Z,99301.81
2022-08-04T04:20:03.328Z,99303.44
2022-08-04T04:22:13.494Z,99304.00
2022-08-04T04:24:07.542Z,99310.44
2022-08-04T04:25:54.226Z,99310.06
2022-08-04T04:27:38.952Z,99316.50
2022-08-04T04:29:35.134Z,99317.06
2022-08-04T04:31:36.141Z,99321.88
2022-08-04T04:33:32.933Z,99310.53
2022-08-04T04:35:18.630Z,99316.31
2022-08-04T04:37:05.354Z,99313.34
2022-08-04T04:39:14.128Z,99315.47
2022-08-04T04:41:01.908Z,99313.78
2022-08-04T04:43:02.395Z,99308.19
2022-08-04T04:44:57.186Z,99310.09
2022-08-04T04:46:40.603Z,99314.56
2022-08-04T04:48:25.676Z,99326.97
2022-08-04T04:50:06.855Z,99321.34
2022-08-04T04:51:45.042Z,99319.25
2022-08-04T04:53:25.579Z,99309.22
2022-08-04T04:55:05.913Z,99316.94
2022-08-04T04:56:45.102Z,99319.03
2022-08-04T04:58:21.428Z,99318.22
2022-08-04T05:00:03.580Z,99311.47
2022-08-04T05:02:03.940Z,99303.31
2022-08-04T05:03:57.246Z,99297.91
2022-08-04T05:05:43.461Z,99290.88
2022-08-04T05:07:53.272Z,99287.78
2022-08-04T05:09:38.747Z,99298.38
2022-08-04T05:11:45.631Z,99303.41
2022-08-04T05:14:34.553Z,99296.38
2022-08-04T05:15:31.988Z,99294.84
2022-08-04T05:17:13.825Z,99289.56
2022-08-04T05:18:56.445Z,99284.28
2022-08-04T05:20:35.861Z,99283.00
2022-08-04T05:22:14.828Z,99283.75
2022-08-04T05:23:55.046Z,99282.59
2022-08-04T05:25:36.017Z,99288.56
2022-08-04T05:27:16.071Z,99276.63
2022-08-04T05:28:54.898Z,99276.84
2022-08-04T05:30:30.136Z,99284.06
2022-08-04T05:32:08.771Z,99276.91
2022-08-04T05:33:47.787Z,99268.84
2022-08-04T05:35:47.928Z,99286.97
2022-08-04T05:37:30.250Z,99292.44
2022-08-04T05:39:07.286Z,99292.44
2022-08-04T05:40:41.473Z,99285.53
2022-08-04T05:42:15.678Z,99285.16
2022-08-04T05:43:51.446Z,99282.41
2022-08-04T05:45:25.959Z,99291.59
2022-08-04T05:47:00.053Z,99284.59
2022-08-04T05:48:34.590Z,99283.31
2022-08-04T05:50:09.824Z,99290.06
2022-08-04T05:51:46.207Z,99283.13
2022-08-04T05:53:21.070Z,99287.25
2022-08-04T05:54:55.606Z,99286.88
2022-08-04T05:56:29.825Z,99287.91
2022-08-04T05:58:03.627Z,99279.81
2022-08-04T05:59:39.753Z,99289.34
2022-08-04T06:01:14.917Z,99281.78
2022-08-04T06:02:51.019Z,99281.31
2022-08-04T06:04:26.218Z,99281.56
2022-08-04T06:06:00.176Z,99277.88
2022-08-04T06:07:35.720Z,99278.81
2022-08-04T06:09:29.473Z,99280.16
2022-08-04T06:11:06.218Z,99273.34
2022-08-04T06:12:45.305Z,99283.56
2022-08-04T06:14:21.628Z,99282.84
2022-08-04T06:15:59.347Z,99270.22
2022-08-04T06:19:40.148Z,99278.13
2022-08-04T06:20:02.665Z,99278.41
2022-08-04T06:21:28.586Z,99264.38
2022-08-04T06:23:05.867Z,99272.34
2022-08-04T06:24:41.869Z,99262.53
2022-08-04T06:26:19.855Z,99265.16
2022-08-04T06:27:54.004Z,99266.84
2022-08-04T06:29:34.632Z,99270.00
2022-08-04T06:32:27.885Z,99263.31
2022-08-04T06:33:13.942Z,99261.84
2022-08-04T06:34:48.190Z,99264.75
2022-08-04T06:36:21.626Z,99260.53
2022-08-04T06:38:00.747Z,99257.97
2022-08-04T06:39:37.951Z,99256.16
2022-08-04T06:41:12.429Z,99250.97
2022-08-04T06:42:46.925Z,99239.28
2022-08-04T06:44:26.000Z,99252.34
2022-08-04T06:46:02.967Z,99255.34
2022-08-04T06:47:38.521Z,99247.22
2022-08-04T06:49:12.695Z,99249.09
2022-08-04T06:51:25.534Z,99249.78
2022-08-04T06:52:46.072Z,99244.09
2022-08-04T06:54:19.643Z,99244.97
2022-08-04T06:55:55.961Z,99253.88
2022-08-04T06:57:31.569Z,99248.75
2022-08-04T06:59:08.143Z,99249.28
2022-08-04T07:00:43.417Z,99243.44
2022-08-04T07:02:18.530Z,99244.25
2022-08-04T07:03:52.902Z,99242.88
2022-08-04T07:05:26.793Z,99254.09
2022-08-04T07:07:00.766Z,99241.44
2022-08-04T07:08:35.990Z,99239.50
2022-08-04T07:10:10.378Z,99251.53
2022-08-04T07:11:47.284Z,99245.31
2022-08-04T07:13:22.372Z,99236.19
2022-08-04T07:14:56.114Z,99247.97
2022-08-04T07:16:30.842Z,99246.28
2022-08-04T07:18:05.294Z,99242.53
2022-08-04T07:19:38.731Z,99247.69
2022-08-04T07:21:12.968Z,99239.03
2022-08-04T07:22:48.400Z,99237.69
2022-08-04T07:24:21.879Z,99239.31
2022-08-04T07:26:11.012Z,99236.03
2022-08-04T07:27:49.349Z,99230.41
2022-08-04T07:29:24.227Z,99226.72
2022-08-04T07:30:59.600Z,99225.03
2022-08-04T07:32:34.255Z,99223.75
2022-08-04T07:34:20.646Z,99221.97
2022-08-04T07:36:05.546Z,99212.75
2022-08-04T07:37:43.089Z,99218.91
2022-08-04T07:39:27.325Z,99213.41
2022-08-04T07:41:03.919Z,99206.75
2022-08-04T07:42:39.805Z,99211.00
2022-08-04T07:44:16.065Z,99217.44
2022-08-04T07:45:49.512Z,99217.84
2022-08-04T07:47:25.486Z,99200.97
2022-08-04T07:48:59.492Z,99214.47
2022-08-04T07:50:33.784Z,99215.53
2022-08-04T07:52:08.722Z,99213.53
2022-08-04T07:53:54.822Z,99215.19
2022-08-04T07:55:30.268Z,99217.72
2022-08-04T07:57:05.774Z,99210.66
2022-08-04T07:58:39.105Z,99206.22
2022-08-04T08:00:15.274Z,99208.34
2022-08-04T08:01:49.158Z,99211.88
2022-08-04T08:03:23.933Z,99211.06
2022-08-04T08:04:57.793Z,99212.56
2022-08-04T08:06:35.553Z,99204.84
2022-08-04T08:08:11.771Z,99210.28
2022-08-04T08:09:45.477Z,99213.56
2022-08-04T08:11:18.811Z,99201.09
2022-08-04T08:12:53.164Z,99202.28
2022-08-04T08:14:26.863Z,99207.00
2022-08-04T08:16:02.493Z,99194.06
2022-08-04T08:17:58.279Z,99186.81
2022-08-04T08:19:29.648Z,99192.66
2022-08-04T08:21:03.757Z,99199.03
2022-08-04T08:22:38.019Z,99200.91
2022-08-04T08:24:13.045Z,99198.19
2022-08-04T08:25:46.889Z,99193.88
2022-08-04T08:27:20.554Z,99197.25
2022-08-04T08:28:54.539Z,99204.13
2022-08-04T08:30:31.849Z,99193.50
2022-08-04T08:32:13.348Z,99194.63
2022-08-04T08:33:47.657Z,99196.28
2022-08-04T08:35:22.077Z,99191.63
2022-08-04T08:37:00.726Z,99191.47
2022-08-04T08:38:42.169Z,99196.53
2022-08-04T08:40:39.196Z,99188.25
2022-08-04T08:42:48.420Z,99182.66
2022-08-04T08:44:58.246Z,99189.69
2022-08-04T08:46:50.274Z,99185.41
2022-08-04T08:48:42.090Z,99188.47
2022-08-04T08:50:38.196Z,99183.50
2022-08-04T08:53:00.627Z,99190.13
2022-08-04T08:54:48.522Z,99181.94
2022-08-04T08:56:33.373Z,99175.38
2022-08-04T08:58:37.130Z,99178.59
2022-08-04T09:00:16.999Z,99177.47
2022-08-04T09:02:18.380Z,99174.75
2022-08-04T09:04:41.733Z,99173.63
2022-08-04T09:06:38.326Z,99171.28
2022-08-04T09:08:27.549Z,99161.03
2022-08-04T09:10:12.136Z,99168.53
2022-08-04T09:11:51.359Z,99162.28
2022-08-04T09:13:35.718Z,99168.19
2022-08-04T09:15:15.027Z,99164.66
2022-08-04T09:16:55.115Z,99158.31
2022-08-04T09:18:37.937Z,99155.72
2022-08-04T09:20:18.157Z,99161.00
2022-08-04T09:22:00.286Z,99159.00
2022-08-04T09:23:42.266Z,99153.97
2022-08-04T09:25:25.385Z,99147.31
2022-08-04T09:27:01.993Z,99157.78
2022-08-04T09:28:55.209Z,99156.75
2022-08-04T09:30:34.133Z,99161.38
2022-08-04T09:32:18.186Z,99160.69
2022-08-04T09:34:00.941Z,99158.25
2022-08-04T09:35:47.158Z,99164.69
2022-08-04T09:37:33.215Z,99160.34
2022-08-04T09:39:27.818Z,99154.38
2022-08-04T09:41:20.891Z,99160.31
2022-08-04T09:43:14.849Z,99144.53
2022-08-04T09:45:05.626Z,99146.00
2022-08-04T09:46:46.180Z,99150.41
2022-08-04T09:48:29.758Z,99152.25
2022-08-04T09:50:13.493Z,99148.81
2022-08-04T09:52:00.169Z,99155.22
2022-08-04T09:53:51.339Z,99153.47
2022-08-04T09:55:35.808Z,99143.47
2022-08-04T09:57:38.439Z,99153.88
2022-08-04T09:59:21.370Z,99149.34
2022-08-04T10:01:03.091Z,99143.00
2022-08-04T10:02:40.524Z,99141.72
2022-08-04T10:04:18.003Z,99146.16
2022-08-04T10:06:08.257Z,99143.41
2022-08-04T10:08:15.902Z,99146.38
2022-08-04T10:10:11.648Z,99130.50
2022-08-04T10:12:03.077Z,99145.53
2022-08-04T10:13:49.993Z,99134.94
2022-08-04T10:15:30.389Z,99145.09
2022-08-04T10:17:27.527Z,99134.56
2022-08-04T10:19:10.717Z,99145.94
2022-08-04T10:20:57.388Z,99138.97
2022-08-04T10:22:55.400Z,99132.41
2022-08-04T10:24:51.119Z,99136.66
2022-08-04T10:26:34.583Z,99123.16
2022-08-04T10:28:13.423Z,99123.50
2022-08-04T10:29:48.823Z,99127.72
2022-08-04T10:31:28.001Z,99134.47
2022-08-04T10:33:08.967Z,99148.84
2022-08-04T10:34:50.034Z,99131.28
2022-08-04T10:36:25.956Z,99130.69
2022-08-04T10:38:06.421Z,99129.00
2022-08-04T10:40:08.608Z,99137.00
2022-08-04T10:41:54.327Z,99124.53
2022-08-04T10:43:42.718Z,99127.09
2022-08-04T10:45:19.607Z,99120.50
2022-08-04T10:46:57.029Z,99130.91
2022-08-04T10:48:42.263Z,99119.75
2022-08-04T10:50:25.016Z,99115.94
2022-08-04T10:52:06.837Z,99121.41
2022-08-04T10:53:41.682Z,99126.72
2022-08-04T10:55:20.113Z,99122.25
2022-08-04T10:57:01.616Z,99115.50
2022-08-04T10:58:47.366Z,99126.03
2022-08-04T11:00:26.087Z,99113.38
2022-08-04T11:02:11.823Z,99125.25
2022-08-04T11:03:53.253Z,99124.38
2022-08-04T11:05:34.462Z,99121.00
2022-08-04T11:07:19.364Z,99121.88
2022-08-04T11:08:56.051Z,99112.94
2022-08-04T11:10:34.341Z,99119.28
2022-08-04T11:12:16.274Z,99110.38
2022-08-04T11:14:00.516Z,99110.09
2022-08-04T11:15:39.239Z,99118.38
2022-08-04T11:17:20.330Z,99112.69
2022-08-04T11:19:08.119Z,99119.69
2022-08-04T11:20:47.997Z,99106.16
2022-08-04T11:22:27.230Z,99110.38
2022-08-04T11:24:05.001Z,99104.88
2022-08-04T11:25:52.271Z,99088.81
2022-08-04T11:27:37.269Z,99105.34
2022-08-04T11:29:18.412Z,99095.19
2022-08-04T11:30:57.408Z,99096.44
2022-08-04T11:32:37.215Z,99096.25
2022-08-04T11:34:21.819Z,99087.41
2022-08-04T11:36:04.343Z,99093.09
2022-08-04T11:37:46.856Z,99099.00
2022-08-04T11:39:29.879Z,99091.00
2022-08-04T11:41:12.236Z,99085.50
2022-08-04T11:42:57.992Z,99087.59
2022-08-04T11:44:36.366Z,99080.22
2022-08-04T11:46:15.310Z,99082.53
2022-08-04T11:47:55.338Z,99078.31
2022-08-04T11:49:56.519Z,99080.19
2022-08-04T11:51:30.566Z,99080.44
2022-08-04T11:53:04.940Z,99074.06
2022-08-04T11:54:39.785Z,99077.03
2022-08-04T11:56:35.960Z,99081.25
2022-08-04T11:58:12.143Z,99052.50
2022-08-04T11:59:49.131Z,99078.31
2022-08-04T12:01:30.107Z,99065.19
2022-08-04T12:03:16.794Z,99073.00
2022-08-04T12:04:58.458Z,99078.91
2022-08-04T12:06:38.441Z,99075.75
2022-08-04T12:08:41.013Z,99068.53
2022-08-04T12:10:41.000Z,99077.00
2022-08-04T12:12:26.055Z,99068.78
2022-08-04T12:14:11.836Z,99077.03
2022-08-04T12:15:57.512Z,99067.94
2022-08-04T12:17:52.491Z,99063.06
2022-08-04T12:19:47.173Z,99059.09
2022-08-04T12:21:32.968Z,99063.94
2022-08-04T12:23:15.033Z,99059.69
2022-08-04T12:24:58.277Z,99059.69
2022-08-04T12:26:38.472Z,99059.72
2022-08-04T12:28:17.848Z,99053.13
2022-08-04T12:30:54.201Z,99053.13
2022-08-04T12:31:54.030Z,99048.25
2022-08-04T12:34:03.283Z,99055.03
2022-08-04T12:35:35.428Z,99056.31
2022-08-04T12:37:22.091Z,99050.00
2022-08-04T12:39:03.111Z,99039.81
2022-08-04T12:40:43.404Z,99044.44
2022-08-04T12:42:24.284Z,99048.25
2022-08-04T12:44:07.588Z,99036.00
2022-08-04T12:46:06.080Z,99037.06
2022-08-04T12:47:41.961Z,99041.94
2022-08-04T12:49:17.279Z,99030.97
2022-08-04T12:50:53.986Z,99051.28
2022-08-04T12:52:45.376Z,99047.00
2022-08-04T12:54:29.013Z,99039.63
2022-08-04T12:56:04.103Z,99041.09
2022-08-04T12:57:38.204Z,99039.41
2022-08-04T12:59:14.203Z,99031.38
2022-08-04T13:00:54.985Z,99037.28
2022-08-04T13:02:35.144Z,99038.13
2022-08-04T13:04:14.467Z,99038.16
2022-08-04T13:05:50.130Z,99034.34
2022-08-04T13:07:26.363Z,99036.66
2022-08-04T13:09:06.677Z,99034.09
2022-08-04T13:10:46.325Z,99039.38
2022-08-04T13:12:26.008Z,99023.78
2022-08-04T13:14:26.119Z,99030.13
2022-08-04T13:16:02.625Z,99037.50
2022-08-04T13:17:53.367Z,99036.44
2022-08-04T13:19:41.599Z,99026.28
2022-08-04T13:21:21.386Z,99020.19
2022-08-04T13:23:02.066Z,99030.53
2022-08-04T13:24:56.858Z,99029.88
2022-08-04T13:26:44.055Z,99022.06
2022-08-04T13:28:29.270Z,99012.16
2022-08-04T13:30:04.050Z,99031.38
2022-08-04T13:31:38.773Z,99025.66
2022-08-04T13:33:14.571Z,99025.88
2022-08-04T13:34:52.723Z,99022.72
2022-08-04T13:36:27.937Z,99022.06
2022-08-04T13:38:03.059Z,99030.94
2022-08-04T13:39:37.435Z,99025.44
2022-08-04T13:41:11.218Z,99027.53
2022-08-04T13:42:48.818Z,99009.34
2022-08-04T13:44:25.512Z,99017.59
2022-08-04T13:46:05.076Z,99008.94
2022-08-04T13:47:41.476Z,99029.22
2022-08-04T13:51:13.363Z,99023.69
2022-08-04T13:52:48.156Z,99019.88
2022-08-04T13:54:21.851Z,99013.31
2022-08-04T13:56:00.702Z,99017.75
2022-08-04T13:57:44.369Z,99021.78
2022-08-04T13:59:20.606Z,99019.25
2022-08-04T14:01:00.184Z,99023.69
2022-08-04T14:02:39.087Z,99023.72
2022-08-04T14:04:21.822Z,99021.19
2022-08-04T14:06:16.032Z,99016.34
2022-08-04T14:07:54.693Z,99015.03
2022-08-04T14:09:34.793Z,99022.00
2022-08-04T14:11:09.300Z,99014.44
2022-08-04T14:13:05.816Z,99019.91
2022-08-04T14:14:47.017Z,99028.97
2022-08-04T14:16:22.933Z,99011.47
2022-08-04T14:17:56.383Z,99017.38
2022-08-04T14:19:48.769Z,99008.09
2022-08-04T14:21:22.068Z,99013.97
2022-08-04T14:23:02.752Z,99008.94
2022-08-04T14:24:36.192Z,99002.59
2022-08-04T14:26:31.401Z,99001.53
2022-08-04T14:28:06.792Z,99011.28
2022-08-04T14:29:41.971Z,99004.31
2022-08-04T14:31:17.673Z,99004.94
2022-08-04T14:34:04.304Z,99008.53
2022-08-04T14:34:58.105Z,99008.94
2022-08-04T14:37:13.231Z,98994.56
2022-08-04T14:38:58.602Z,99004.91
2022-08-04T14:40:35.886Z,98999.69
2022-08-04T14:42:09.910Z,99019.09
2022-08-04T14:43:48.170Z,98998.31
2022-08-04T14:45:32.515Z,99010.13
2022-08-04T14:47:06.191Z,99008.66
2022-08-04T14:49:16.586Z,99006.84
2022-08-04T14:50:52.651Z,99006.47
2022-08-04T14:52:27.091Z,99009.38
2022-08-04T14:54:03.860Z,99009.59
2022-08-04T14:55:41.051Z,99008.97
2022-08-04T14:57:18.243Z,99013.63
2022-08-04T14:59:01.044Z,98989.53
2022-08-04T15:00:36.175Z,99010.22
2022-08-04T15:02:10.648Z,99005.94
2022-08-04T15:03:50.160Z,99004.06
2022-08-04T15:06:02.324Z,99006.81
2022-08-04T15:07:21.275Z,98995.78
2022-08-04T15:08:56.584Z,99001.06
2022-08-04T15:10:30.617Z,99002.13
2022-08-04T15:12:05.576Z,99008.44
2022-08-04T15:13:39.123Z,99001.50
2022-08-04T15:15:35.440Z,98995.38
2022-08-04T15:17:12.179Z,98999.97
2022-08-04T15:19:01.026Z,98994.88
2022-08-04T15:20:34.611Z,98991.06
2022-08-04T15:22:17.176Z,98989.34
2022-08-04T15:23:52.601Z,98992.34
2022-08-04T15:25:26.863Z,98990.41
2022-08-04T15:27:04.126Z,98987.66
2022-08-04T15:28:41.112Z,98981.38
2022-08-04T15:30:18.517Z,98980.91
2022-08-04T15:32:06.046Z,98989.53
2022-08-04T15:33:42.746Z,98987.44
2022-08-04T15:35:26.591Z,98983.66
2022-08-04T15:37:06.937Z,98989.13
2022-08-04T15:38:46.300Z,98978.75
2022-08-04T15:40:33.630Z,98984.25
2022-08-04T15:42:20.917Z,98974.34
2022-08-04T15:44:19.167Z,98983.19
2022-08-04T15:46:41.786Z,98965.66
2022-08-04T15:48:35.484Z,98980.00
2022-08-04T15:50:11.502Z,98979.50
2022-08-04T15:51:45.171Z,98986.25
2022-08-04T15:53:23.059Z,98981.59
2022-08-04T15:55:34.726Z,98980.56
2022-08-04T15:57:08.397Z,98984.63
2022-08-04T15:58:51.555Z,98983.94
2022-08-04T16:00:24.863Z,98985.38
2022-08-04T16:02:31.551Z,98985.84
2022-08-04T16:04:22.469Z,98981.19
2022-08-04T16:05:56.057Z,98981.59
2022-08-04T16:07:54.702Z,98980.75
2022-08-04T16:09:45.103Z,98979.41
2022-08-04T16:11:41.953Z,98979.41
2022-08-04T16:13:17.064Z,98985.97
2022-08-04T16:14:50.561Z,98977.13
2022-08-04T16:16:29.287Z,98995.06
2022-08-04T16:18:02.730Z,98991.25
2022-08-04T16:19:52.117Z,98981.13
2022-08-04T16:21:26.990Z,98985.72
2022-08-04T16:23:31.714Z,98991.19
2022-08-04T16:25:10.749Z,98994.56
2022-08-04T16:26:55.100Z,98988.22
2022-08-04T16:28:41.881Z,98992.38
2022-08-04T16:30:16.876Z,98991.97
2022-08-04T16:32:11.098Z,99001.41
2022-08-04T16:33:48.403Z,99000.31
2022-08-04T16:35:42.218Z,98997.78
2022-08-04T16:37:15.993Z,98991.47
2022-08-04T16:39:06.923Z,98990.97
2022-08-04T16:40:44.518Z,98993.94
2022-08-04T16:42:34.392Z,98999.34
2022-08-04T16:44:52.300Z,98998.91
2022-08-04T16:47:21.867Z,98993.78
2022-08-04T16:48:37.515Z,98992.50
2022-08-04T16:50:10.222Z,98999.22
2022-08-04T16:51:44.483Z,98995.16
2022-08-04T16:54:02.930Z,99000.00
2022-08-04T16:55:13.565Z,98993.63
2022-08-04T16:56:48.210Z,98998.25
2022-08-04T16:58:29.869Z,98994.00
2022-08-04T17:00:07.458Z,99003.28
2022-08-04T17:01:48.088Z,98994.41
2022-08-04T17:03:22.252Z,99003.19
2022-08-04T17:05:01.011Z,98996.19
2022-08-04T17:06:43.146Z,98997.78
2022-08-04T17:08:29.764Z,98990.38
2022-08-04T17:10:03.743Z,99009.09
2022-08-04T17:11:37.560Z,99012.63
2022-08-04T17:14:03.066Z,99013.41
2022-08-04T17:15:22.082Z,99007.81
2022-08-04T17:16:59.853Z,99007.34
2022-08-04T17:18:35.301Z,99001.81
2022-08-04T17:20:09.628Z,99010.75
2022-08-04T17:21:44.193Z,99008.78
2022-08-04T17:24:13.197Z,99019.63
2022-08-04T17:25:51.474Z,99006.94
2022-08-04T17:28:09.789Z,99008.94
2022-08-04T17:29:12.611Z,99006.75
2022-08-04T17:30:54.040Z,99008.97
2022-08-04T17:32:28.072Z,99012.41
2022-08-04T17:34:03.980Z,98995.44
2022-08-04T17:35:41.524Z,99006.75
2022-08-04T17:37:38.889Z,99012.31
2022-08-04T17:39:17.893Z,99020.78
2022-08-04T17:40:58.217Z,99019.00
2022-08-04T17:42:34.455Z,99025.19
2022-08-04T17:44:08.254Z,99019.84
2022-08-04T17:45:53.559Z,99017.81
2022-08-04T17:47:30.047Z,99026.06
2022-08-04T17:49:20.497Z,99023.44
2022-08-04T17:50:53.117Z,99024.16
2022-08-04T17:52:44.653Z,99021.22
2022-08-04T17:54:29.778Z,99026.09
2022-08-04T17:56:36.311Z,99028.56
2022-08-04T17:58:27.063Z,99022.19
2022-08-04T18:00:00.813Z,99021.22
2022-08-04T18:01:52.249Z,99027.75
2022-08-04T18:03:29.167Z,99022.53
2022-08-04T18:05:05.549Z,99033.06
2022-08-04T18:06:51.448Z,99033.84
2022-08-04T18:08:38.851Z,99028.22
2022-08-04T18:10:30.654Z,99036.09
2022-08-04T18:12:14.887Z,99037.66
2022-08-04T18:13:54.646Z,99044.47
2022-08-04T18:18:20.800Z,99042.31
2022-08-04T18:19:31.306Z,99040.25
2022-08-04T18:21:05.678Z,99024.66
2022-08-04T18:22:42.004Z,99044.88
2022-08-04T18:24:16.565Z,99037.06
2022-08-04T18:25:51.099Z,99050.00
2022-08-04T18:27:29.776Z,99043.38
2022-08-04T18:29:04.918Z,99064.28
2022-08-04T18:30:54.894Z,99031.16
2022-08-04T18:32:33.406Z,99054.97
2022-08-04T18:34:13.674Z,99060.91
2022-08-04T18:36:32.615Z,99061.41
2022-08-04T18:38:06.214Z,99059.69
2022-08-04T18:40:17.409Z,99063.59
2022-08-04T18:42:01.187Z,99071.22
2022-08-04T18:43:40.512Z,99074.88
2022-08-04T18:45:15.389Z,99071.34
2022-08-04T18:46:50.789Z,99077.56
2022-08-04T18:48:36.325Z,99074.28
2022-08-04T18:50:59.983Z,99073.97
2022-08-04T18:52:08.071Z,99078.00
2022-08-04T18:53:45.011Z,99072.88
2022-08-04T18:55:56.093Z,99082.00
2022-08-04T18:57:32.447Z,99078.94
2022-08-04T18:59:23.169Z,99085.69
2022-08-04T19:00:56.121Z,99088.88
2022-08-04T19:02:34.408Z,99093.41
2022-08-04T19:04:32.323Z,99093.03
2022-08-04T19:06:03.908Z,99088.94
2022-08-04T19:08:11.586Z,99099.97
2022-08-04T19:09:51.195Z,99096.28
2022-08-04T19:11:54.688Z,99099.44
2022-08-04T19:13:25.615Z,99090.44
2022-08-04T19:15:08.660Z,99102.00
2022-08-04T19:16:47.351Z,99098.31
2022-08-04T19:18:19.986Z,99106.91
2022-08-04T19:19:54.012Z,99113.81
2022-08-04T19:22:00.801Z,99111.31
2022-08-04T19:24:29.285Z,99114.25
2022-08-04T19:25:59.179Z,99107.22
2022-08-04T19:27:13.179Z,99111.06
2022-08-04T19:28:50.754Z,99108.06
2022-08-04T19:30:24.466Z,99112.31
2022-08-04T19:31:58.161Z,99104.31
2022-08-04T19:33:58.730Z,99108.34
2022-08-04T19:35:25.298Z,99106.34
2022-08-04T19:37:04.563Z,99113.16
2022-08-04T19:38:38.903Z,99114.84
2022-08-04T19:40:13.173Z,99107.22
2022-08-04T19:42:04.607Z,99118.22
2022-08-04T19:43:38.769Z,99113.78
2022-08-04T19:45:17.466Z,99119.03
2022-08-04T19:46:51.299Z,99116.47
2022-08-04T19:48:30.386Z,99118.66
2022-08-04T19:50:10.372Z,99116.09
2022-08-04T19:51:46.288Z,99118.81
2022-08-04T19:55:37.072Z,99116.41
2022-08-04T19:57:25.127Z,99127.41
2022-08-04T19:59:05.928Z,99112.31
2022-08-04T20:00:51.009Z,99118.72
2022-08-04T20:02:25.081Z,99114.22
2022-08-04T20:04:10.385Z,99119.41
2022-08-04T20:05:53.762Z,99125.13
2022-08-04T20:07:30.197Z,99129.97
2022-08-04T20:11:00.629Z,99123.34
2022-08-04T20:12:34.250Z,99134.94
2022-08-04T20:14:15.205Z,99130.28
2022-08-04T20:15:55.363Z,99130.47
2022-08-04T20:18:08.295Z,99141.06
2022-08-04T20:19:25.753Z,99135.66
2022-08-04T20:21:00.282Z,99142.22
2022-08-04T20:22:52.526Z,99136.41
2022-08-04T20:24:37.648Z,99135.97
2022-08-04T20:26:15.288Z,99137.13